createdAt,value
2019-03-22T00:00:39.906Z,99.90
2019-03-22T00:03:09.361Z,99.90
2019-03-22T00:05:38.883Z,99.90
2019-03-22T00:08:08.288Z,99.90
2019-03-22T00:10:37.938Z,99.90
2019-03-22T00:13:07.326Z,99.90
2019-03-22T00:15:37.124Z,99.90
2019-03-22T00:18:06.507Z,99.90
2019-03-22T00:20:35.962Z,99.90
2019-03-22T00:23:05.496Z,99.90
2019-03-22T00:25:35.723Z,99.90
2019-03-22T00:28:05.205Z,99.90
2019-03-22T00:30:34.597Z,99.90
2019-03-22T00:33:04.350Z,99.90
2019-03-22T00:35:33.745Z,99.90
2019-03-22T00:38:03.122Z,99.90
2019-03-22T00:40:32.970Z,99.90
2019-03-22T00:43:02.345Z,99.90
2019-03-22T00:45:32.088Z,99.90
2019-03-22T00:48:01.467Z,99.90
2019-03-22T00:50:31.257Z,99.90
2019-03-22T00:53:00.713Z,99.90
2019-03-22T00:55:30.113Z,99.90
2019-03-22T00:57:59.745Z,99.90
2019-03-22T01:00:29.427Z,99.90
2019-03-22T01:02:58.902Z,99.90
2019-03-22T01:05:28.292Z,99.90
2019-03-22T01:07:58.046Z,99.90
2019-03-22T01:10:27.441Z,99.90
2019-03-22T01:12:56.995Z,99.90
2019-03-22T01:15:26.399Z,99.90
2019-03-22T01:17:56.171Z,99.90
2019-03-22T01:20:25.558Z,99.90
2019-03-22T01:22:55.302Z,99.90
2019-03-22T01:25:24.986Z,99.90
2019-03-22T01:27:54.366Z,99.90
2019-03-22T01:30:23.752Z,99.90
2019-03-22T01:32:53.116Z,99.90
2019-03-22T01:35:22.503Z,99.90
2019-03-22T01:37:52.021Z,99.90
2019-03-22T01:40:21.566Z,99.90
2019-03-22T01:42:51.042Z,99.90
2019-03-22T01:45:20.522Z,99.90
2019-03-22T01:47:49.879Z,99.90
2019-03-22T01:50:19.745Z,99.90
2019-03-22T01:52:49.113Z,99.90
2019-03-22T01:55:18.850Z,99.90
2019-03-22T01:57:53.436Z,99.90
2019-03-22T02:00:20.123Z,99.90
2019-03-22T02:02:49.833Z,99.90
2019-03-22T02:05:19.367Z,99.90
2019-03-22T02:07:48.822Z,99.90
2019-03-22T02:10:18.654Z,99.90
2019-03-22T02:12:48.122Z,99.90
2019-03-22T02:15:18.280Z,99.90
2019-03-22T02:17:47.814Z,99.90
2019-03-22T02:20:18.260Z,99.90
2019-03-22T02:22:47.701Z,99.90
2019-03-22T02:25:17.467Z,99.90
2019-03-22T02:27:46.989Z,99.90
2019-03-22T02:30:16.921Z,99.90
2019-03-22T02:32:46.766Z,99.90
2019-03-22T02:35:28.216Z,99.90
2019-03-22T02:37:47.406Z,99.90
2019-03-22T02:40:16.894Z,99.90
2019-03-22T02:42:46.493Z,99.90
2019-03-22T02:45:16.225Z,99.90
2019-03-22T02:47:45.624Z,99.90
2019-03-22T02:50:19.694Z,99.90
2019-03-22T02:52:46.582Z,99.90
2019-03-22T02:55:16.049Z,99.90
2019-03-22T02:57:45.592Z,99.90
2019-03-22T03:00:15.653Z,99.90
2019-03-22T03:02:45.256Z,99.90
2019-03-22T03:05:14.998Z,99.90
2019-03-22T03:07:44.634Z,99.90
2019-03-22T03:10:14.489Z,99.90
2019-03-22T03:12:44.115Z,99.90
2019-03-22T03:15:14.313Z,99.90
2019-03-22T03:17:43.961Z,99.90
2019-03-22T03:20:14.084Z,99.90
2019-03-22T03:22:44.044Z,99.90
2019-03-22T03:25:13.669Z,99.90
2019-03-22T03:27:43.413Z,99.90
2019-03-22T03:30:14.337Z,99.90
2019-03-22T03:32:43.890Z,99.90
2019-03-22T03:35:13.571Z,99.90
2019-03-22T03:37:42.961Z,99.90
2019-03-22T03:40:13.127Z,99.90
2019-03-22T03:42:42.601Z,99.90
2019-03-22T03:45:46.391Z,99.90
2019-03-22T03:48:15.790Z,99.90
2019-03-22T03:50:45.331Z,99.90
2019-03-22T03:53:15.070Z,99.90
2019-03-22T03:55:44.457Z,99.90
2019-03-22T03:58:14.257Z,99.90
2019-03-22T04:00:43.634Z,99.90
2019-03-22T04:03:13.035Z,99.90
2019-03-22T04:05:42.523Z,99.90
2019-03-22T04:08:11.975Z,99.90
2019-03-22T04:10:44.266Z,99.90
2019-03-22T04:13:13.665Z,99.90
2019-03-22T04:15:43.587Z,99.90
2019-03-22T04:18:12.990Z,99.90
2019-03-22T04:20:42.446Z,99.90
2019-03-22T04:23:11.933Z,99.90
2019-03-22T04:25:41.392Z,99.90
2019-03-22T04:28:11.116Z,99.90
2019-03-22T04:30:40.490Z,99.90
2019-03-22T04:33:09.894Z,99.90
2019-03-22T04:35:39.530Z,99.90
2019-03-22T04:38:08.930Z,99.90
2019-03-22T04:40:38.325Z,99.90
2019-03-22T04:43:07.900Z,99.90
2019-03-22T04:45:39.087Z,99.90
2019-03-22T04:48:14.508Z,99.90
2019-03-22T04:50:46.243Z,99.90
2019-03-22T04:53:21.629Z,99.90
2019-03-22T04:55:55.970Z,99.90
2019-03-22T04:58:27.185Z,99.90
2019-03-22T05:00:58.742Z,99.90
2019-03-22T05:03:29.298Z,99.90
2019-03-22T05:06:01.768Z,99.90
2019-03-22T05:08:34.818Z,99.90
2019-03-22T05:11:07.014Z,99.90
2019-03-22T05:13:39.110Z,99.90
2019-03-22T05:16:11.686Z,99.90
2019-03-22T05:18:44.354Z,99.90
2019-03-22T05:21:15.974Z,99.90
2019-03-22T05:23:47.642Z,99.90
2019-03-22T05:26:19.770Z,99.90
2019-03-22T05:28:50.397Z,99.90
2019-03-22T05:31:50.658Z,99.90
2019-03-22T05:34:20.075Z,99.90
2019-03-22T05:36:49.540Z,99.90
2019-03-22T05:39:19.241Z,99.90
2019-03-22T05:41:48.697Z,99.90
2019-03-22T05:44:18.413Z,99.90
2019-03-22T05:46:48.972Z,99.90
2019-03-22T05:49:18.853Z,99.90
2019-03-22T05:51:49.201Z,99.90
2019-03-22T05:54:19.195Z,99.90
2019-03-22T05:56:49.003Z,99.90
2019-03-22T05:59:18.836Z,99.90
2019-03-22T06:01:48.309Z,99.90
2019-03-22T06:04:17.761Z,99.90
2019-03-22T06:06:47.956Z,99.90
2019-03-22T06:09:17.510Z,99.90
2019-03-22T06:11:46.889Z,99.90
2019-03-22T06:14:16.298Z,99.90
2019-03-22T06:16:45.698Z,99.90
2019-03-22T06:19:15.382Z,99.90
2019-03-22T06:21:44.851Z,99.90
2019-03-22T06:24:14.227Z,99.90
2019-03-22T06:26:43.927Z,99.90
2019-03-22T06:29:13.724Z,99.90
2019-03-22T06:31:43.192Z,99.90
2019-03-22T06:34:12.663Z,99.90
2019-03-22T06:36:42.063Z,99.90
2019-03-22T06:39:11.673Z,99.90
2019-03-22T06:41:41.474Z,99.90
2019-03-22T06:44:10.858Z,99.90
2019-03-22T06:46:40.360Z,99.90
2019-03-22T06:49:09.822Z,99.90
2019-03-22T06:51:39.307Z,99.90
2019-03-22T06:54:08.901Z,99.90
2019-03-22T06:56:38.603Z,99.90
2019-03-22T06:59:08.185Z,99.90
2019-03-22T07:01:37.567Z,99.90
2019-03-22T07:04:07.503Z,99.90
2019-03-22T07:06:36.958Z,99.90
2019-03-22T07:09:09.152Z,99.90
2019-03-22T07:11:41.700Z,99.90
2019-03-22T07:14:11.150Z,99.90
2019-03-22T07:16:40.860Z,99.90
2019-03-22T07:19:10.574Z,99.90
2019-03-22T07:21:39.966Z,99.90
2019-03-22T07:24:09.435Z,99.90
2019-03-22T07:26:38.890Z,99.90
2019-03-22T07:29:08.349Z,99.90
2019-03-22T07:31:38.156Z,99.90
2019-03-22T07:34:07.619Z,99.90
2019-03-22T07:36:37.423Z,99.90
2019-03-22T07:39:08.670Z,99.90
2019-03-22T07:41:38.119Z,99.90
2019-03-22T07:44:07.601Z,99.90
2019-03-22T07:46:37.492Z,99.90
2019-03-22T07:49:07.022Z,99.90
2019-03-22T07:51:36.809Z,99.90
2019-03-22T07:54:06.330Z,99.90
2019-03-22T07:56:36.007Z,99.90
2019-03-22T07:59:05.666Z,99.90
2019-03-22T08:01:35.541Z,99.90
2019-03-22T08:04:05.036Z,99.90
2019-03-22T08:06:34.641Z,99.90
2019-03-22T08:09:07.234Z,99.90
2019-03-22T08:11:36.884Z,99.90
2019-03-22T08:14:06.420Z,99.90
2019-03-22T08:16:35.955Z,98.30
2019-03-22T08:19:05.662Z,96.10
2019-03-22T08:21:35.106Z,82.00
2019-03-22T08:24:04.930Z,66.40
2019-03-22T08:26:34.814Z,65.40
2019-03-22T08:29:04.350Z,53.30
2019-03-22T08:31:33.965Z,51.10
2019-03-22T08:34:03.959Z,50.30
2019-03-22T08:36:33.710Z,49.80
2019-03-22T08:39:03.320Z,49.00
2019-03-22T08:41:33.033Z,47.70
2019-03-22T08:44:03.001Z,46.40
2019-03-22T08:46:33.064Z,45.00
2019-03-22T08:49:02.614Z,45.80
2019-03-22T08:51:32.414Z,44.10
2019-03-22T08:54:02.140Z,43.90
2019-03-22T08:56:31.748Z,44.30
2019-03-22T08:59:01.315Z,42.10
2019-03-22T09:01:30.802Z,42.00
2019-03-22T09:04:00.638Z,42.50
2019-03-22T09:06:30.186Z,41.60
2019-03-22T09:08:59.873Z,40.70
2019-03-22T09:11:29.284Z,42.90
2019-03-22T09:13:58.943Z,43.10
2019-03-22T09:16:30.703Z,40.00
2019-03-22T09:18:59.745Z,39.60
2019-03-22T09:21:29.404Z,38.90
2019-03-22T09:23:59.119Z,39.00
2019-03-22T09:26:28.626Z,38.50
2019-03-22T09:28:58.100Z,39.00
2019-03-22T09:31:27.867Z,40.00
2019-03-22T09:33:57.499Z,40.40
2019-03-22T09:36:27.317Z,39.00
2019-03-22T09:38:56.875Z,39.40
2019-03-22T09:41:26.363Z,37.90
2019-03-22T09:43:55.966Z,38.40
2019-03-22T09:46:25.962Z,38.50
2019-03-22T09:48:55.698Z,37.90
2019-03-22T09:51:25.125Z,36.80
2019-03-22T09:53:54.639Z,37.30
2019-03-22T09:56:24.113Z,37.10
2019-03-22T09:58:53.882Z,36.70
2019-03-22T10:01:24.247Z,37.90
2019-03-22T10:03:54.122Z,37.20
2019-03-22T10:06:23.974Z,39.00
2019-03-22T10:08:53.502Z,38.30
2019-03-22T10:11:22.944Z,37.40
2019-03-22T10:13:52.414Z,35.50
2019-03-22T10:16:21.957Z,34.50
2019-03-22T10:18:52.169Z,35.30
2019-03-22T10:21:22.992Z,33.50
2019-03-22T10:23:52.546Z,34.60
2019-03-22T10:26:22.135Z,33.60
2019-03-22T10:28:51.623Z,33.00
2019-03-22T10:31:21.097Z,32.80
2019-03-22T10:33:50.900Z,32.50
2019-03-22T10:36:20.415Z,33.00
2019-03-22T10:38:50.511Z,32.50
2019-03-22T10:41:20.109Z,31.80
2019-03-22T10:43:49.514Z,31.60
2019-03-22T10:46:19.220Z,32.90
2019-03-22T10:48:48.693Z,32.70
2019-03-22T10:51:21.405Z,34.40
2019-03-22T10:53:49.962Z,34.20
2019-03-22T10:56:19.337Z,33.20
2019-03-22T10:58:48.798Z,32.60
2019-03-22T11:01:18.262Z,35.00
2019-03-22T11:03:47.785Z,32.30
2019-03-22T11:06:25.842Z,32.30
2019-03-22T11:08:48.971Z,31.90
2019-03-22T11:11:18.369Z,34.00
2019-03-22T11:13:48.469Z,31.50
2019-03-22T11:16:17.934Z,31.60
2019-03-22T11:18:47.335Z,33.10
2019-03-22T11:21:16.816Z,33.10
2019-03-22T11:23:46.682Z,34.20
2019-03-22T11:26:16.329Z,31.20
2019-03-22T11:28:46.005Z,32.60
2019-03-22T11:31:15.827Z,33.40
2019-03-22T11:33:45.318Z,34.60
2019-03-22T11:36:15.129Z,34.90
2019-03-22T11:38:44.687Z,33.90
2019-03-22T11:41:14.472Z,33.90
2019-03-22T11:43:44.167Z,34.90
2019-03-22T11:46:13.675Z,34.10
2019-03-22T11:48:43.191Z,33.20
2019-03-22T11:51:12.774Z,33.80
2019-03-22T11:53:42.582Z,34.30
2019-03-22T11:56:11.981Z,35.00
2019-03-22T11:58:41.397Z,33.30
2019-03-22T12:01:19.254Z,35.00
2019-03-22T12:03:44.931Z,34.80
2019-03-22T12:06:14.830Z,36.90
2019-03-22T12:08:44.433Z,34.70
2019-03-22T12:11:14.394Z,34.40
2019-03-22T12:13:43.907Z,33.10
2019-03-22T12:16:13.475Z,33.30
2019-03-22T12:18:43.251Z,35.70
2019-03-22T12:21:13.025Z,35.40
2019-03-22T12:23:45.534Z,34.50
2019-03-22T12:26:15.166Z,35.10
2019-03-22T12:28:44.633Z,34.90
2019-03-22T12:31:14.498Z,35.70
2019-03-22T12:33:44.061Z,35.40
2019-03-22T12:36:13.813Z,35.20
2019-03-22T12:38:43.209Z,35.20
2019-03-22T12:41:13.111Z,35.30
2019-03-22T12:43:42.618Z,36.40
2019-03-22T12:46:12.210Z,36.60
2019-03-22T12:48:41.722Z,36.60
2019-03-22T12:51:17.329Z,35.50
2019-03-22T12:53:47.120Z,37.40
2019-03-22T12:56:16.938Z,37.60
2019-03-22T12:58:46.408Z,37.40
2019-03-22T13:01:16.036Z,37.90
2019-03-22T13:03:45.574Z,37.70
2019-03-22T13:06:15.457Z,38.40
2019-03-22T13:08:45.581Z,38.10
2019-03-22T13:11:15.100Z,39.00
2019-03-22T13:13:44.478Z,39.20
2019-03-22T13:16:13.973Z,39.80
2019-03-22T13:18:50.084Z,39.00
2019-03-22T13:21:14.796Z,38.80
2019-03-22T13:23:44.466Z,39.10
2019-03-22T13:26:13.915Z,39.40
2019-03-22T13:28:43.969Z,39.70
2019-03-22T13:31:13.702Z,39.30
2019-03-22T13:33:43.158Z,40.00
2019-03-22T13:36:12.893Z,40.60
2019-03-22T13:38:42.820Z,41.60
2019-03-22T13:41:12.231Z,40.90
2019-03-22T13:43:41.685Z,40.60
2019-03-22T13:46:11.542Z,40.80
2019-03-22T13:48:40.934Z,41.20
2019-03-22T13:51:10.494Z,41.60
2019-03-22T13:53:39.999Z,41.10
2019-03-22T13:56:09.867Z,41.40
2019-03-22T13:58:39.410Z,40.90
2019-03-22T14:01:08.892Z,41.20
2019-03-22T14:03:38.370Z,41.40
2019-03-22T14:06:07.862Z,40.60
2019-03-22T14:08:37.418Z,41.60
2019-03-22T14:11:06.985Z,42.00
2019-03-22T14:13:36.411Z,41.40
2019-03-22T14:16:05.994Z,41.60
2019-03-22T14:18:35.427Z,41.30
2019-03-22T14:21:05.354Z,43.20
2019-03-22T14:23:35.244Z,41.40
2019-03-22T14:26:04.801Z,41.90
2019-03-22T14:28:34.566Z,41.70
2019-03-22T14:31:04.068Z,42.10
2019-03-22T14:33:33.591Z,41.40
2019-03-22T14:36:03.046Z,41.40
2019-03-22T14:38:32.445Z,40.60
2019-03-22T14:41:01.903Z,40.50
2019-03-22T14:43:31.298Z,42.00
2019-03-22T14:46:01.002Z,41.50
2019-03-22T14:48:30.493Z,42.00
2019-03-22T14:51:00.226Z,41.30
2019-03-22T14:53:30.134Z,41.20
2019-03-22T14:55:59.866Z,42.30
2019-03-22T14:58:29.271Z,42.20
2019-03-22T15:00:58.674Z,42.20
2019-03-22T15:03:28.481Z,42.40
2019-03-22T15:05:58.047Z,42.80
2019-03-22T15:08:27.625Z,42.00
2019-03-22T15:10:57.193Z,42.60
2019-03-22T15:13:36.926Z,42.40
2019-03-22T15:16:26.318Z,41.80
2019-03-22T15:19:19.277Z,42.20
2019-03-22T15:22:07.806Z,41.90
2019-03-22T15:24:54.893Z,43.20
2019-03-22T15:27:54.094Z,43.50
2019-03-22T15:30:48.889Z,43.10
2019-03-22T15:33:47.123Z,42.50
2019-03-22T15:36:48.203Z,42.00
2019-03-22T15:39:48.681Z,42.40
2019-03-22T15:42:18.218Z,42.60
2019-03-22T15:44:48.434Z,42.50
2019-03-22T15:47:17.980Z,42.60
2019-03-22T15:49:47.728Z,42.30
2019-03-22T15:52:17.216Z,43.10
2019-03-22T15:54:46.694Z,43.00
2019-03-22T15:57:16.234Z,43.60
2019-03-22T15:59:45.786Z,42.90
2019-03-22T16:02:15.237Z,42.40
2019-03-22T16:04:44.726Z,42.00
2019-03-22T16:07:14.582Z,42.20
2019-03-22T16:09:44.405Z,42.90
2019-03-22T16:12:14.227Z,42.60
2019-03-22T16:14:44.011Z,42.50
2019-03-22T16:17:13.447Z,42.50
2019-03-22T16:19:42.927Z,41.90
2019-03-22T16:22:13.038Z,41.50
2019-03-22T16:24:42.826Z,41.30
2019-03-22T16:27:12.393Z,41.70
2019-03-22T16:29:42.299Z,42.60
2019-03-22T16:32:12.207Z,41.50
2019-03-22T16:34:42.002Z,42.00
2019-03-22T16:37:11.918Z,40.80
2019-03-22T16:39:41.630Z,41.30
2019-03-22T16:42:11.143Z,41.10
2019-03-22T16:44:41.094Z,41.30
2019-03-22T16:47:10.867Z,40.10
2019-03-22T16:49:40.695Z,42.10
2019-03-22T16:52:10.539Z,41.00
2019-03-22T16:54:40.967Z,41.30
2019-03-22T16:57:11.250Z,41.30
2019-03-22T16:59:40.760Z,41.70
2019-03-22T17:02:10.768Z,42.20
2019-03-22T17:04:40.343Z,41.80
2019-03-22T17:07:09.931Z,41.70
2019-03-22T17:09:39.523Z,41.90
2019-03-22T17:12:09.398Z,41.80
2019-03-22T17:14:38.847Z,41.80
2019-03-22T17:17:08.485Z,43.60
2019-03-22T17:19:38.267Z,45.10
2019-03-22T17:22:08.153Z,46.70
2019-03-22T17:24:37.626Z,48.30
2019-03-22T17:27:07.427Z,49.40
2019-03-22T17:29:37.128Z,51.10
2019-03-22T17:32:07.170Z,51.30
2019-03-22T17:34:37.004Z,49.30
2019-03-22T17:37:07.507Z,48.80
2019-03-22T17:39:37.318Z,49.30
2019-03-22T17:42:07.034Z,50.50
2019-03-22T17:44:36.877Z,51.20
2019-03-22T17:47:06.783Z,51.50
2019-03-22T17:49:36.300Z,52.80
2019-03-22T17:52:06.327Z,54.10
2019-03-22T17:54:36.007Z,54.70
2019-03-22T17:57:05.566Z,55.20
2019-03-22T17:59:34.986Z,56.20
2019-03-22T18:02:04.525Z,57.70
2019-03-22T18:04:34.250Z,58.10
2019-03-22T18:07:03.750Z,58.70
2019-03-22T18:09:33.550Z,60.40
2019-03-22T18:12:05.111Z,62.80
2019-03-22T18:14:34.555Z,64.00
2019-03-22T18:17:04.131Z,65.10
2019-03-22T18:19:33.659Z,65.70
2019-03-22T18:22:03.747Z,67.50
2019-03-22T18:24:33.450Z,68.10
2019-03-22T18:27:03.050Z,69.10
2019-03-22T18:29:32.774Z,71.80
2019-03-22T18:32:02.251Z,74.50
2019-03-22T18:34:34.471Z,76.00
2019-03-22T18:37:02.906Z,77.80
2019-03-22T18:39:32.356Z,77.50
2019-03-22T18:42:01.806Z,75.90
2019-03-22T18:44:31.957Z,78.60
2019-03-22T18:47:01.881Z,76.40
2019-03-22T18:49:31.473Z,76.40
2019-03-22T18:52:01.043Z,77.00
2019-03-22T18:54:30.572Z,78.70
2019-03-22T18:57:00.312Z,77.80
2019-03-22T18:59:30.123Z,82.40
2019-03-22T19:01:59.548Z,81.50
2019-03-22T19:04:29.012Z,80.40
2019-03-22T19:06:58.523Z,79.70
2019-03-22T19:09:28.045Z,79.00
2019-03-22T19:11:57.485Z,79.40
2019-03-22T19:14:27.267Z,80.30
2019-03-22T19:16:57.164Z,81.30
2019-03-22T19:19:27.083Z,82.40
2019-03-22T19:21:56.604Z,82.40
2019-03-22T19:24:26.297Z,83.50
2019-03-22T19:26:56.215Z,91.50
2019-03-22T19:29:25.754Z,95.30
2019-03-22T19:31:55.263Z,98.30
2019-03-22T19:34:24.683Z,96.60
2019-03-22T19:36:54.234Z,98.10
2019-03-22T19:39:23.946Z,99.00
2019-03-22T19:41:53.376Z,99.90
2019-03-22T19:44:23.164Z,99.90
2019-03-22T19:46:52.595Z,99.30
2019-03-22T19:49:22.376Z,98.00
2019-03-22T19:51:52.709Z,98.30
2019-03-22T19:54:22.127Z,99.90
2019-03-22T19:56:51.706Z,99.90
2019-03-22T19:59:22.075Z,99.90
2019-03-22T20:01:51.647Z,99.90
2019-03-22T20:04:21.587Z,99.90
2019-03-22T20:06:51.031Z,99.90
2019-03-22T20:09:20.523Z,99.90
2019-03-22T20:11:50.021Z,99.90
2019-03-22T20:14:19.527Z,99.90
2019-03-22T20:16:49.049Z,99.90
2019-03-22T20:19:19.150Z,99.90
2019-03-22T20:21:49.023Z,99.90
2019-03-22T20:24:18.486Z,99.90
2019-03-22T20:26:47.932Z,99.90
2019-03-22T20:29:17.425Z,99.90
2019-03-22T20:31:46.921Z,99.90
2019-03-22T20:34:16.658Z,99.90
2019-03-22T20:36:46.210Z,99.90
2019-03-22T20:39:16.274Z,99.90
2019-03-22T20:41:45.727Z,99.90
2019-03-22T20:44:34.371Z,99.90
2019-03-22T20:47:03.985Z,99.90
2019-03-22T20:49:33.385Z,99.90
2019-03-22T20:52:02.787Z,99.90
2019-03-22T20:54:32.236Z,99.90
2019-03-22T20:57:01.656Z,99.90
2019-03-22T20:59:31.437Z,99.90
2019-03-22T21:02:00.994Z,99.90
2019-03-22T21:04:30.386Z,99.90
2019-03-22T21:06:59.820Z,99.90
2019-03-22T21:09:29.226Z,99.90
2019-03-22T21:11:58.934Z,99.90
2019-03-22T21:14:30.726Z,99.90
2019-03-22T21:16:59.739Z,99.90
2019-03-22T21:19:29.135Z,99.90
2019-03-22T21:21:58.854Z,99.90
2019-03-22T21:24:28.562Z,99.90
2019-03-22T21:26:57.981Z,99.90
2019-03-22T21:29:27.785Z,99.90
2019-03-22T21:31:57.168Z,99.90
2019-03-22T21:34:26.666Z,99.90
2019-03-22T21:36:56.227Z,99.90
2019-03-22T21:39:25.789Z,99.90
2019-03-22T21:41:55.184Z,99.90
2019-03-22T21:44:24.914Z,99.90
2019-03-22T21:46:55.447Z,99.90
2019-03-22T21:49:24.906Z,99.90
2019-03-22T21:51:54.411Z,99.90
2019-03-22T21:54:23.854Z,99.90
2019-03-22T21:56:53.568Z,99.90
2019-03-22T21:59:23.141Z,99.90
2019-03-22T22:01:52.643Z,99.90
2019-03-22T22:04:22.131Z,99.90
2019-03-22T22:06:51.713Z,99.90
2019-03-22T22:09:21.405Z,99.90
2019-03-22T22:11:51.219Z,99.90
2019-03-22T22:14:20.594Z,99.90
2019-03-22T22:16:50.326Z,99.90
2019-03-22T22:19:20.039Z,99.90
2019-03-22T22:21:49.772Z,99.90
2019-03-22T22:24:19.458Z,99.90
2019-03-22T22:26:48.938Z,99.90
2019-03-22T22:29:18.685Z,99.90
2019-03-22T22:31:48.060Z,99.90
2019-03-22T22:34:17.789Z,99.90
2019-03-22T22:36:47.158Z,99.90
2019-03-22T22:39:16.586Z,99.90
2019-03-22T22:41:46.101Z,99.90
2019-03-22T22:44:15.493Z,99.90
2019-03-22T22:46:44.866Z,99.90
2019-03-22T22:49:14.734Z,99.90
2019-03-22T22:51:44.110Z,99.90
2019-03-22T22:54:13.490Z,99.90
2019-03-22T22:56:43.243Z,99.90
2019-03-22T22:59:12.891Z,99.90
2019-03-22T23:01:42.790Z,99.90
2019-03-22T23:04:12.678Z,99.90
2019-03-22T23:06:42.077Z,99.90
2019-03-22T23:09:12.316Z,99.90
2019-03-22T23:11:42.014Z,99.90
2019-03-22T23:14:11.481Z,99.90
2019-03-22T23:16:41.125Z,99.90
2019-03-22T23:19:10.585Z,99.90
2019-03-22T23:21:39.963Z,99.90
2019-03-22T23:24:09.998Z,99.90
2019-03-22T23:26:39.458Z,99.90
2019-03-22T23:29:08.926Z,99.90
2019-03-22T23:31:38.564Z,99.90
2019-03-22T23:34:08.274Z,99.90
2019-03-22T23:36:38.098Z,99.90
2019-03-22T23:39:09.026Z,99.90
2019-03-22T23:41:38.841Z,99.90
2019-03-22T23:44:08.226Z,99.90
2019-03-22T23:46:37.962Z,99.90
2019-03-22T23:49:07.357Z,99.90
2019-03-22T23:51:36.747Z,99.90
2019-03-22T23:54:06.474Z,99.90
2019-03-22T23:56:35.917Z,99.90
2019-03-22T23:59:05.304Z,99.90
